sensor_id;sensor_type;location;lat;lon;timestamp;temperature;humidity
17791;DHT22;9019;48.132;-1.210;2023-02-27T00:00:26;0.70;99.90
17791;DHT22;9019;48.132;-1.210;2023-02-27T00:02:52;0.70;99.90
17791;DHT22;9019;48.132;-1.210;2023-02-27T00:05:21;0.60;99.90
17791;DHT22;9019;48.132;-1.210;2023-02-27T00:07:48;0.70;99.90
17791;DHT22;9019;48.132;-1.210;2023-02-27T00:10:15;0.70;99.90
17791;DHT22;9019;48.132;-1.210;2023-02-27T00:12:43;0.80;99.90
17791;DHT22;9019;48.132;-1.210;2023-02-27T00:15:12;0.70;99.90
17791;DHT22;9019;48.132;-1.210;2023-02-27T00:17:39;0.80;99.90
17791;DHT22;9019;48.132;-1.210;2023-02-27T00:20:09;0.60;99.90
17791;DHT22;9019;48.132;-1.210;2023-02-27T00:22:38;0.60;99.90
17791;DHT22;9019;48.132;-1.210;2023-02-27T00:25:06;0.50;99.90
17791;DHT22;9019;48.132;-1.210;2023-02-27T00:27:33;0.60;99.90
17791;DHT22;9019;48.132;-1.210;2023-02-27T00:30:00;0.70;99.90
17791;DHT22;9019;48.132;-1.210;2023-02-27T00:32:27;0.50;99.90
17791;DHT22;9019;48.132;-1.210;2023-02-27T00:34:54;0.60;99.90
17791;DHT22;9019;48.132;-1.210;2023-02-27T00:37:21;0.50;99.90
17791;DHT22;9019;48.132;-1.210;2023-02-27T00:39:49;0.60;99.90
17791;DHT22;9019;48.132;-1.210;2023-02-27T00:42:16;0.60;99.90
17791;DHT22;9019;48.132;-1.210;2023-02-27T00:44:43;0.50;99.90
17791;DHT22;9019;48.132;-1.210;2023-02-27T00:47:10;0.50;99.90
17791;DHT22;9019;48.132;-1.210;2023-02-27T00:49:36;0.60;99.90
17791;DHT22;9019;48.132;-1.210;2023-02-27T00:52:04;0.60;99.90
17791;DHT22;9019;48.132;-1.210;2023-02-27T00:54:31;0.50;99.90
17791;DHT22;9019;48.132;-1.210;2023-02-27T00:56:59;0.50;99.90
17791;DHT22;9019;48.132;-1.210;2023-02-27T00:59:26;0.50;99.90
17791;DHT22;9019;48.132;-1.210;2023-02-27T01:01:53;0.50;99.90
17791;DHT22;9019;48.132;-1.210;2023-02-27T01:04:20;0.60;99.90
17791;DHT22;9019;48.132;-1.210;2023-02-27T01:06:46;0.50;99.90
17791;DHT22;9019;48.132;-1.210;2023-02-27T01:09:13;0.50;99.90
17791;DHT22;9019;48.132;-1.210;2023-02-27T01:11:40;0.40;99.90
17791;DHT22;9019;48.132;-1.210;2023-02-27T01:14:08;0.40;99.90
17791;DHT22;9019;48.132;-1.210;2023-02-27T01:16:35;0.30;99.90
17791;DHT22;9019;48.132;-1.210;2023-02-27T01:19:02;0.40;99.90
17791;DHT22;9019;48.132;-1.210;2023-02-27T01:21:29;0.30;99.90
17791;DHT22;9019;48.132;-1.210;2023-02-27T01:23:56;0.10;99.90
17791;DHT22;9019;48.132;-1.210;2023-02-27T01:26:23;0.20;99.90
17791;DHT22;9019;48.132;-1.210;2023-02-27T01:28:50;0.20;99.90
17791;DHT22;9019;48.132;-1.210;2023-02-27T01:31:19;0.20;99.90
17791;DHT22;9019;48.132;-1.210;2023-02-27T01:33:45;0.20;99.90
17791;DHT22;9019;48.132;-1.210;2023-02-27T01:36:13;0.00;99.90
17791;DHT22;9019;48.132;-1.210;2023-02-27T01:38:40;0.00;99.90
17791;DHT22;9019;48.132;-1.210;2023-02-27T01:41:07;0.00;99.90
17791;DHT22;9019;48.132;-1.210;2023-02-27T01:43:53;-0.10;99.90
17791;DHT22;9019;48.132;-1.210;2023-02-27T01:46:22;0.00;99.90
17791;DHT22;9019;48.132;-1.210;2023-02-27T01:48:49;-0.20;99.90
17791;DHT22;9019;48.132;-1.210;2023-02-27T01:51:20;-0.20;99.90
17791;DHT22;9019;48.132;-1.210;2023-02-27T01:53:49;-0.10;99.90
17791;DHT22;9019;48.132;-1.210;2023-02-27T01:56:18;-0.10;99.90
17791;DHT22;9019;48.132;-1.210;2023-02-27T01:58:47;0.00;99.90
17791;DHT22;9019;48.132;-1.210;2023-02-27T02:01:15;0.00;99.90
17791;DHT22;9019;48.132;-1.210;2023-02-27T02:03:46;-0.10;99.90
17791;DHT22;9019;48.132;-1.210;2023-02-27T02:06:14;0.10;99.90
17791;DHT22;9019;48.132;-1.210;2023-02-27T02:08:45;0.10;99.90
17791;DHT22;9019;48.132;-1.210;2023-02-27T02:11:15;0.00;99.90
17791;DHT22;9019;48.132;-1.210;2023-02-27T02:13:43;0.00;99.90
17791;DHT22;9019;48.132;-1.210;2023-02-27T02:16:19;-0.10;99.90
17791;DHT22;9019;48.132;-1.210;2023-02-27T02:19:20;-0.10;99.90
17791;DHT22;9019;48.132;-1.210;2023-02-27T02:22:31;0.10;99.90
17791;DHT22;9019;48.132;-1.210;2023-02-27T02:28:08;0.10;99.90
17791;DHT22;9019;48.132;-1.210;2023-02-27T02:31:19;0.00;99.90
17791;DHT22;9019;48.132;-1.210;2023-02-27T02:34:30;0.00;99.90
17791;DHT22;9019;48.132;-1.210;2023-02-27T02:40:29;0.10;99.90
17791;DHT22;9019;48.132;-1.210;2023-02-27T02:43:07;0.00;99.90
17791;DHT22;9019;48.132;-1.210;2023-02-27T02:45:41;0.10;99.90
17791;DHT22;9019;48.132;-1.210;2023-02-27T02:48:13;0.00;99.90
17791;DHT22;9019;48.132;-1.210;2023-02-27T02:50:48;0.00;99.90
17791;DHT22;9019;48.132;-1.210;2023-02-27T02:53:22;0.00;99.90
17791;DHT22;9019;48.132;-1.210;2023-02-27T02:55:59;0.00;99.90
17791;DHT22;9019;48.132;-1.210;2023-02-27T02:58:33;0.00;99.90
17791;DHT22;9019;48.132;-1.210;2023-02-27T03:01:06;0.20;99.90
17791;DHT22;9019;48.132;-1.210;2023-02-27T03:03:37;0.00;99.90
17791;DHT22;9019;48.132;-1.210;2023-02-27T03:06:09;0.10;99.90
17791;DHT22;9019;48.132;-1.210;2023-02-27T03:08:41;0.10;99.90
17791;DHT22;9019;48.132;-1.210;2023-02-27T03:11:10;0.10;99.90
17791;DHT22;9019;48.132;-1.210;2023-02-27T03:13:42;0.10;99.90
17791;DHT22;9019;48.132;-1.210;2023-02-27T03:16:16;0.10;99.90
17791;DHT22;9019;48.132;-1.210;2023-02-27T03:18:49;0.20;99.90
17791;DHT22;9019;48.132;-1.210;2023-02-27T03:21:21;0.10;99.90
17791;DHT22;9019;48.132;-1.210;2023-02-27T03:23:52;0.20;99.90
17791;DHT22;9019;48.132;-1.210;2023-02-27T03:26:24;0.10;99.90
17791;DHT22;9019;48.132;-1.210;2023-02-27T03:29:05;0.20;99.90
17791;DHT22;9019;48.132;-1.210;2023-02-27T03:31:40;0.10;99.90
17791;DHT22;9019;48.132;-1.210;2023-02-27T03:34:14;0.20;99.90
17791;DHT22;9019;48.132;-1.210;2023-02-27T03:36:47;0.20;99.90
17791;DHT22;9019;48.132;-1.210;2023-02-27T03:39:24;0.30;99.90
17791;DHT22;9019;48.132;-1.210;2023-02-27T03:42:00;0.30;99.90
17791;DHT22;9019;48.132;-1.210;2023-02-27T03:44:31;0.20;99.90
17791;DHT22;9019;48.132;-1.210;2023-02-27T03:47:01;0.20;99.90
17791;DHT22;9019;48.132;-1.210;2023-02-27T03:49:28;0.20;99.90
17791;DHT22;9019;48.132;-1.210;2023-02-27T03:51:54;0.20;99.90
17791;DHT22;9019;48.132;-1.210;2023-02-27T03:54:24;0.10;99.90
17791;DHT22;9019;48.132;-1.210;2023-02-27T03:56:58;0.10;99.90
17791;DHT22;9019;48.132;-1.210;2023-02-27T03:59:26;0.10;99.90
17791;DHT22;9019;48.132;-1.210;2023-02-27T04:01:55;0.20;99.90
17791;DHT22;9019;48.132;-1.210;2023-02-27T04:04:23;0.20;99.90
17791;DHT22;9019;48.132;-1.210;2023-02-27T04:06:54;0.20;99.90
17791;DHT22;9019;48.132;-1.210;2023-02-27T04:09:57;0.30;99.90
17791;DHT22;9019;48.132;-1.210;2023-02-27T04:12:37;0.40;99.90
17791;DHT22;9019;48.132;-1.210;2023-02-27T04:15:12;0.30;99.90
17791;DHT22;9019;48.132;-1.210;2023-02-27T04:17:51;0.50;99.90
17791;DHT22;9019;48.132;-1.210;2023-02-27T04:20:36;0.50;99.90
17791;DHT22;9019;48.132;-1.210;2023-02-27T04:23:07;0.40;99.90
17791;DHT22;9019;48.132;-1.210;2023-02-27T04:25:43;0.50;99.90
17791;DHT22;9019;48.132;-1.210;2023-02-27T04:28:16;0.40;99.90
17791;DHT22;9019;48.132;-1.210;2023-02-27T04:30:56;0.30;99.90
17791;DHT22;9019;48.132;-1.210;2023-02-27T04:33:31;0.30;99.90
17791;DHT22;9019;48.132;-1.210;2023-02-27T04:36:05;0.40;99.90
17791;DHT22;9019;48.132;-1.210;2023-02-27T04:38:37;0.30;99.90
17791;DHT22;9019;48.132;-1.210;2023-02-27T04:41:07;0.20;99.90
17791;DHT22;9019;48.132;-1.210;2023-02-27T04:43:40;0.20;99.90
17791;DHT22;9019;48.132;-1.210;2023-02-27T04:46:09;0.20;99.90
17791;DHT22;9019;48.132;-1.210;2023-02-27T04:48:42;0.10;99.90
17791;DHT22;9019;48.132;-1.210;2023-02-27T04:51:13;0.00;99.90
17791;DHT22;9019;48.132;-1.210;2023-02-27T04:53:45;0.00;99.90
17791;DHT22;9019;48.132;-1.210;2023-02-27T04:56:15;0.00;99.90
17791;DHT22;9019;48.132;-1.210;2023-02-27T04:58:46;0.00;99.90
17791;DHT22;9019;48.132;-1.210;2023-02-27T05:01:17;-0.20;99.90
17791;DHT22;9019;48.132;-1.210;2023-02-27T05:03:48;-0.30;99.90
17791;DHT22;9019;48.132;-1.210;2023-02-27T05:06:21;-0.20;99.90
17791;DHT22;9019;48.132;-1.210;2023-02-27T05:08:55;-0.20;99.90
17791;DHT22;9019;48.132;-1.210;2023-02-27T05:11:27;-0.30;99.90
17791;DHT22;9019;48.132;-1.210;2023-02-27T05:14:00;-0.20;99.90
17791;DHT22;9019;48.132;-1.210;2023-02-27T05:16:31;-0.30;99.90
17791;DHT22;9019;48.132;-1.210;2023-02-27T05:19:00;-0.20;99.90
17791;DHT22;9019;48.132;-1.210;2023-02-27T05:21:30;-0.20;99.90
17791;DHT22;9019;48.132;-1.210;2023-02-27T05:24:08;-0.20;99.90
17791;DHT22;9019;48.132;-1.210;2023-02-27T05:27:03;-0.30;99.90
17791;DHT22;9019;48.132;-1.210;2023-02-27T05:29:40;-0.30;99.90
17791;DHT22;9019;48.132;-1.210;2023-02-27T05:32:15;-0.40;99.90
17791;DHT22;9019;48.132;-1.210;2023-02-27T05:34:50;-0.40;99.90
17791;DHT22;9019;48.132;-1.210;2023-02-27T05:37:20;-0.40;99.90
17791;DHT22;9019;48.132;-1.210;2023-02-27T05:39:50;-0.50;99.90
17791;DHT22;9019;48.132;-1.210;2023-02-27T05:42:21;-0.30;99.90
17791;DHT22;9019;48.132;-1.210;2023-02-27T05:44:54;-0.30;99.90
17791;DHT22;9019;48.132;-1.210;2023-02-27T05:47:25;-0.30;99.90
17791;DHT22;9019;48.132;-1.210;2023-02-27T05:49:57;-0.40;99.90
17791;DHT22;9019;48.132;-1.210;2023-02-27T05:52:25;-0.30;99.90
17791;DHT22;9019;48.132;-1.210;2023-02-27T05:54:57;-0.20;99.90
17791;DHT22;9019;48.132;-1.210;2023-02-27T05:57:29;-0.30;99.90
17791;DHT22;9019;48.132;-1.210;2023-02-27T06:00:02;-0.40;99.90
17791;DHT22;9019;48.132;-1.210;2023-02-27T06:02:30;-0.20;99.90
17791;DHT22;9019;48.132;-1.210;2023-02-27T06:04:57;-0.30;99.90
17791;DHT22;9019;48.132;-1.210;2023-02-27T06:07:24;-0.20;99.90
17791;DHT22;9019;48.132;-1.210;2023-02-27T06:09:51;-0.30;99.90
17791;DHT22;9019;48.132;-1.210;2023-02-27T06:12:18;-0.20;99.90
17791;DHT22;9019;48.132;-1.210;2023-02-27T06:14:44;-0.30;99.90
17791;DHT22;9019;48.132;-1.210;2023-02-27T06:17:13;-0.30;99.90
17791;DHT22;9019;48.132;-1.210;2023-02-27T06:19:39;-0.30;99.90
17791;DHT22;9019;48.132;-1.210;2023-02-27T06:22:07;-0.20;99.90
17791;DHT22;9019;48.132;-1.210;2023-02-27T06:24:35;-0.30;99.90
17791;DHT22;9019;48.132;-1.210;2023-02-27T06:27:01;-0.20;99.90
17791;DHT22;9019;48.132;-1.210;2023-02-27T06:29:28;-0.20;99.90
17791;DHT22;9019;48.132;-1.210;2023-02-27T06:31:55;-0.20;99.90
17791;DHT22;9019;48.132;-1.210;2023-02-27T06:34:24;-0.20;99.90
17791;DHT22;9019;48.132;-1.210;2023-02-27T06:36:51;-0.20;99.90
17791;DHT22;9019;48.132;-1.210;2023-02-27T06:39:17;-0.20;99.90
17791;DHT22;9019;48.132;-1.210;2023-02-27T06:41:44;-0.20;99.90
17791;DHT22;9019;48.132;-1.210;2023-02-27T06:44:11;-0.30;99.90
17791;DHT22;9019;48.132;-1.210;2023-02-27T06:46:38;-0.20;99.90
17791;DHT22;9019;48.132;-1.210;2023-02-27T06:49:05;-0.20;99.90
17791;DHT22;9019;48.132;-1.210;2023-02-27T06:51:34;-0.20;99.90
17791;DHT22;9019;48.132;-1.210;2023-02-27T06:54:01;-0.20;99.90
17791;DHT22;9019;48.132;-1.210;2023-02-27T06:56:28;-0.20;99.90
17791;DHT22;9019;48.132;-1.210;2023-02-27T06:58:54;-0.20;99.90
17791;DHT22;9019;48.132;-1.210;2023-02-27T07:01:21;-0.10;99.90
17791;DHT22;9019;48.132;-1.210;2023-02-27T07:03:49;0.00;99.90
17791;DHT22;9019;48.132;-1.210;2023-02-27T07:06:16;0.00;99.90
17791;DHT22;9019;48.132;-1.210;2023-02-27T07:08:44;0.10;99.90
17791;DHT22;9019;48.132;-1.210;2023-02-27T07:11:11;0.10;99.90
17791;DHT22;9019;48.132;-1.210;2023-02-27T07:13:38;0.20;99.90
17791;DHT22;9019;48.132;-1.210;2023-02-27T07:16:05;0.40;99.90
17791;DHT22;9019;48.132;-1.210;2023-02-27T07:18:33;0.40;99.90
17791;DHT22;9019;48.132;-1.210;2023-02-27T07:21:00;0.70;99.90
17791;DHT22;9019;48.132;-1.210;2023-02-27T07:23:27;0.70;99.90
17791;DHT22;9019;48.132;-1.210;2023-02-27T07:25:55;0.70;99.90
17791;DHT22;9019;48.132;-1.210;2023-02-27T07:28:22;1.00;99.90
17791;DHT22;9019;48.132;-1.210;2023-02-27T07:30:52;1.20;99.90
17791;DHT22;9019;48.132;-1.210;2023-02-27T07:33:19;1.30;99.90
17791;DHT22;9019;48.132;-1.210;2023-02-27T07:35:47;1.70;99.90
17791;DHT22;9019;48.132;-1.210;2023-02-27T07:38:14;2.00;99.90
17791;DHT22;9019;48.132;-1.210;2023-02-27T07:40:40;2.50;99.90
17791;DHT22;9019;48.132;-1.210;2023-02-27T07:43:09;2.70;99.90
17791;DHT22;9019;48.132;-1.210;2023-02-27T07:45:36;3.20;99.90
17791;DHT22;9019;48.132;-1.210;2023-02-27T07:48:03;3.40;99.90
17791;DHT22;9019;48.132;-1.210;2023-02-27T07:50:30;3.70;99.90
17791;DHT22;9019;48.132;-1.210;2023-02-27T07:52:56;3.60;99.90
17791;DHT22;9019;48.132;-1.210;2023-02-27T07:55:23;4.00;99.90
17791;DHT22;9019;48.132;-1.210;2023-02-27T07:57:50;4.20;99.90
17791;DHT22;9019;48.132;-1.210;2023-02-27T08:00:19;4.60;99.90
17791;DHT22;9019;48.132;-1.210;2023-02-27T08:02:46;4.10;99.90
17791;DHT22;9019;48.132;-1.210;2023-02-27T08:05:13;4.70;99.90
17791;DHT22;9019;48.132;-1.210;2023-02-27T08:07:40;5.00;99.90
17791;DHT22;9019;48.132;-1.210;2023-02-27T08:10:08;5.60;99.90
17791;DHT22;9019;48.132;-1.210;2023-02-27T08:12:36;4.60;99.90
17791;DHT22;9019;48.132;-1.210;2023-02-27T08:15:04;4.50;99.90
17791;DHT22;9019;48.132;-1.210;2023-02-27T08:17:33;5.40;99.90
17791;DHT22;9019;48.132;-1.210;2023-02-27T08:20:00;6.30;99.90
17791;DHT22;9019;48.132;-1.210;2023-02-27T08:22:28;6.10;99.90
17791;DHT22;9019;48.132;-1.210;2023-02-27T08:24:55;6.00;99.90
17791;DHT22;9019;48.132;-1.210;2023-02-27T08:27:22;6.60;99.90
17791;DHT22;9019;48.132;-1.210;2023-02-27T08:29:49;5.70;99.90
17791;DHT22;9019;48.132;-1.210;2023-02-27T08:32:16;6.20;99.90
17791;DHT22;9019;48.132;-1.210;2023-02-27T08:34:45;6.60;99.90
17791;DHT22;9019;48.132;-1.210;2023-02-27T08:37:11;6.60;99.90
17791;DHT22;9019;48.132;-1.210;2023-02-27T08:39:38;6.00;99.90
17791;DHT22;9019;48.132;-1.210;2023-02-27T08:42:05;5.70;99.90
17791;DHT22;9019;48.132;-1.210;2023-02-27T08:44:32;6.80;99.90
17791;DHT22;9019;48.132;-1.210;2023-02-27T08:46:59;6.30;99.90
17791;DHT22;9019;48.132;-1.210;2023-02-27T08:49:26;7.10;99.90
17791;DHT22;9019;48.132;-1.210;2023-02-27T08:51:55;7.40;99.90
17791;DHT22;9019;48.132;-1.210;2023-02-27T08:54:21;6.80;99.90
17791;DHT22;9019;48.132;-1.210;2023-02-27T08:56:49;6.60;99.90
17791;DHT22;9019;48.132;-1.210;2023-02-27T08:59:16;6.20;99.90
17791;DHT22;9019;48.132;-1.210;2023-02-27T09:01:42;5.60;99.90
17791;DHT22;9019;48.132;-1.210;2023-02-27T09:04:09;6.20;99.90
17791;DHT22;9019;48.132;-1.210;2023-02-27T09:06:37;5.80;99.90
17791;DHT22;9019;48.132;-1.210;2023-02-27T09:09:05;5.60;99.90
17791;DHT22;9019;48.132;-1.210;2023-02-27T09:11:32;5.70;99.90
17791;DHT22;9019;48.132;-1.210;2023-02-27T09:13:59;5.50;99.90
17791;DHT22;9019;48.132;-1.210;2023-02-27T09:16:26;6.00;99.90
17791;DHT22;9019;48.132;-1.210;2023-02-27T09:18:53;5.30;99.90
17791;DHT22;9019;48.132;-1.210;2023-02-27T09:21:21;5.30;99.90
17791;DHT22;9019;48.132;-1.210;2023-02-27T09:23:49;5.90;99.90
17791;DHT22;9019;48.132;-1.210;2023-02-27T09:26:17;5.70;99.90
17791;DHT22;9019;48.132;-1.210;2023-02-27T09:28:44;5.50;99.90
17791;DHT22;9019;48.132;-1.210;2023-02-27T09:31:11;6.10;99.90
17791;DHT22;9019;48.132;-1.210;2023-02-27T09:33:38;6.20;99.90
17791;DHT22;9019;48.132;-1.210;2023-02-27T09:36:06;5.60;99.90
17791;DHT22;9019;48.132;-1.210;2023-02-27T09:38:34;6.10;99.90
17791;DHT22;9019;48.132;-1.210;2023-02-27T09:41:02;5.90;99.90
17791;DHT22;9019;48.132;-1.210;2023-02-27T09:43:36;6.00;99.90
17791;DHT22;9019;48.132;-1.210;2023-02-27T09:46:05;5.90;99.90
17791;DHT22;9019;48.132;-1.210;2023-02-27T09:48:37;6.60;99.90
17791;DHT22;9019;48.132;-1.210;2023-02-27T09:51:05;7.10;99.90
17791;DHT22;9019;48.132;-1.210;2023-02-27T09:53:35;7.00;99.90
17791;DHT22;9019;48.132;-1.210;2023-02-27T09:56:07;6.40;99.90
17791;DHT22;9019;48.132;-1.210;2023-02-27T09:58:44;6.20;99.90
17791;DHT22;9019;48.132;-1.210;2023-02-27T10:01:15;6.40;99.90
17791;DHT22;9019;48.132;-1.210;2023-02-27T10:04:05;6.10;99.90
17791;DHT22;9019;48.132;-1.210;2023-02-27T10:06:39;6.50;99.90
17791;DHT22;9019;48.132;-1.210;2023-02-27T10:09:17;6.70;99.90
17791;DHT22;9019;48.132;-1.210;2023-02-27T10:11:56;7.20;99.90
17791;DHT22;9019;48.132;-1.210;2023-02-27T10:14:33;6.90;99.90
17791;DHT22;9019;48.132;-1.210;2023-02-27T10:17:06;6.50;99.90
17791;DHT22;9019;48.132;-1.210;2023-02-27T10:19:38;6.90;99.90
17791;DHT22;9019;48.132;-1.210;2023-02-27T10:22:11;6.60;99.90
17791;DHT22;9019;48.132;-1.210;2023-02-27T10:24:43;6.60;99.90
17791;DHT22;9019;48.132;-1.210;2023-02-27T10:27:14;7.80;99.90
17791;DHT22;9019;48.132;-1.210;2023-02-27T10:29:43;7.50;99.90
17791;DHT22;9019;48.132;-1.210;2023-02-27T10:32:13;6.60;99.90
17791;DHT22;9019;48.132;-1.210;2023-02-27T10:34:46;7.10;99.90
17791;DHT22;9019;48.132;-1.210;2023-02-27T10:37:15;7.50;99.90
17791;DHT22;9019;48.132;-1.210;2023-02-27T10:39:46;7.70;99.90
17791;DHT22;9019;48.132;-1.210;2023-02-27T10:42:15;7.30;99.90
17791;DHT22;9019;48.132;-1.210;2023-02-27T10:44:44;7.20;99.90
17791;DHT22;9019;48.132;-1.210;2023-02-27T10:47:12;7.20;99.90
17791;DHT22;9019;48.132;-1.210;2023-02-27T10:49:42;7.40;99.90
17791;DHT22;9019;48.132;-1.210;2023-02-27T10:52:10;7.90;99.90
17791;DHT22;9019;48.132;-1.210;2023-02-27T10:54:37;7.50;99.90
17791;DHT22;9019;48.132;-1.210;2023-02-27T10:57:18;8.10;99.90
17791;DHT22;9019;48.132;-1.210;2023-02-27T10:59:51;7.00;99.90
17791;DHT22;9019;48.132;-1.210;2023-02-27T11:02:22;7.30;99.90
17791;DHT22;9019;48.132;-1.210;2023-02-27T11:04:52;7.70;99.90
17791;DHT22;9019;48.132;-1.210;2023-02-27T11:07:31;7.80;99.90
17791;DHT22;9019;48.132;-1.210;2023-02-27T11:10:02;7.30;99.90
17791;DHT22;9019;48.132;-1.210;2023-02-27T11:12:31;7.70;99.90
17791;DHT22;9019;48.132;-1.210;2023-02-27T11:15:02;7.60;99.80
17791;DHT22;9019;48.132;-1.210;2023-02-27T11:17:46;8.20;99.90
17791;DHT22;9019;48.132;-1.210;2023-02-27T11:20:33;8.10;98.90
17791;DHT22;9019;48.132;-1.210;2023-02-27T11:23:03;8.30;98.70
17791;DHT22;9019;48.132;-1.210;2023-02-27T11:25:30;8.60;98.30
17791;DHT22;9019;48.132;-1.210;2023-02-27T11:28:12;8.70;99.90
17791;DHT22;9019;48.132;-1.210;2023-02-27T11:30:42;8.30;98.60
17791;DHT22;9019;48.132;-1.210;2023-02-27T11:33:17;8.80;97.50
17791;DHT22;9019;48.132;-1.210;2023-02-27T11:35:49;9.10;95.20
17791;DHT22;9019;48.132;-1.210;2023-02-27T11:38:18;8.40;95.80
17791;DHT22;9019;48.132;-1.210;2023-02-27T11:40:50;7.50;95.80
17791;DHT22;9019;48.132;-1.210;2023-02-27T11:43:19;7.90;95.60
17791;DHT22;9019;48.132;-1.210;2023-02-27T11:45:52;8.50;95.90
17791;DHT22;9019;48.132;-1.210;2023-02-27T11:48:22;8.80;93.90
17791;DHT22;9019;48.132;-1.210;2023-02-27T11:51:27;8.60;95.50
17791;DHT22;9019;48.132;-1.210;2023-02-27T11:54:12;8.80;96.10
17791;DHT22;9019;48.132;-1.210;2023-02-27T11:56:43;9.30;97.20
17791;DHT22;9019;48.132;-1.210;2023-02-27T11:59:19;9.60;96.60
17791;DHT22;9019;48.132;-1.210;2023-02-27T12:01:54;9.00;94.80
17791;DHT22;9019;48.132;-1.210;2023-02-27T12:04:25;8.70;92.60
17791;DHT22;9019;48.132;-1.210;2023-02-27T12:06:58;8.50;93.00
17791;DHT22;9019;48.132;-1.210;2023-02-27T12:09:35;8.40;92.60
17791;DHT22;9019;48.132;-1.210;2023-02-27T12:12:11;9.30;95.70
17791;DHT22;9019;48.132;-1.210;2023-02-27T12:14:44;8.80;93.10
17791;DHT22;9019;48.132;-1.210;2023-02-27T12:17:20;8.20;91.30
17791;DHT22;9019;48.132;-1.210;2023-02-27T12:19:59;8.70;92.10
17791;DHT22;9019;48.132;-1.210;2023-02-27T12:22:29;9.20;91.20
17791;DHT22;9019;48.132;-1.210;2023-02-27T12:25:03;9.10;93.30
17791;DHT22;9019;48.132;-1.210;2023-02-27T12:27:37;8.90;91.00
17791;DHT22;9019;48.132;-1.210;2023-02-27T12:30:14;8.90;87.50
17791;DHT22;9019;48.132;-1.210;2023-02-27T12:32:47;9.00;90.70
17791;DHT22;9019;48.132;-1.210;2023-02-27T12:35:18;9.10;91.20
17791;DHT22;9019;48.132;-1.210;2023-02-27T12:37:46;9.00;90.70
17791;DHT22;9019;48.132;-1.210;2023-02-27T12:40:15;9.00;91.80
17791;DHT22;9019;48.132;-1.210;2023-02-27T12:43:01;9.10;93.80
17791;DHT22;9019;48.132;-1.210;2023-02-27T12:45:51;8.70;89.80
17791;DHT22;9019;48.132;-1.210;2023-02-27T12:48:31;8.70;93.20
17791;DHT22;9019;48.132;-1.210;2023-02-27T12:51:09;9.50;86.90
17791;DHT22;9019;48.132;-1.210;2023-02-27T12:54:02;9.60;92.10
17791;DHT22;9019;48.132;-1.210;2023-02-27T12:56:43;9.50;90.60
17791;DHT22;9019;48.132;-1.210;2023-02-27T12:59:22;8.80;95.10
17791;DHT22;9019;48.132;-1.210;2023-02-27T13:01:56;9.50;92.30
17791;DHT22;9019;48.132;-1.210;2023-02-27T13:04:30;9.70;89.70
17791;DHT22;9019;48.132;-1.210;2023-02-27T13:07:02;9.80;92.60
17791;DHT22;9019;48.132;-1.210;2023-02-27T13:09:35;9.70;93.70
17791;DHT22;9019;48.132;-1.210;2023-02-27T13:12:11;9.50;94.00
17791;DHT22;9019;48.132;-1.210;2023-02-27T13:14:46;9.20;93.50
17791;DHT22;9019;48.132;-1.210;2023-02-27T13:17:18;9.50;92.00
17791;DHT22;9019;48.132;-1.210;2023-02-27T13:19:50;9.00;91.40
17791;DHT22;9019;48.132;-1.210;2023-02-27T13:22:24;9.20;93.30
17791;DHT22;9019;48.132;-1.210;2023-02-27T13:24:55;8.90;92.70
17791;DHT22;9019;48.132;-1.210;2023-02-27T13:27:26;8.80;92.30
17791;DHT22;9019;48.132;-1.210;2023-02-27T13:30:04;9.10;90.10
17791;DHT22;9019;48.132;-1.210;2023-02-27T13:32:37;9.50;91.70
17791;DHT22;9019;48.132;-1.210;2023-02-27T13:37:57;9.20;90.70
17791;DHT22;9019;48.132;-1.210;2023-02-27T13:40:32;9.30;88.40
17791;DHT22;9019;48.132;-1.210;2023-02-27T13:43:02;9.40;84.40
17791;DHT22;9019;48.132;-1.210;2023-02-27T13:45:55;9.70;91.80
17791;DHT22;9019;48.132;-1.210;2023-02-27T13:48:49;9.40;91.10
17791;DHT22;9019;48.132;-1.210;2023-02-27T13:51:47;9.00;89.10
17791;DHT22;9019;48.132;-1.210;2023-02-27T13:54:28;9.50;85.70
17791;DHT22;9019;48.132;-1.210;2023-02-27T13:57:15;9.00;81.40
17791;DHT22;9019;48.132;-1.210;2023-02-27T13:59:59;8.80;80.50
17791;DHT22;9019;48.132;-1.210;2023-02-27T14:02:40;8.60;77.70
17791;DHT22;9019;48.132;-1.210;2023-02-27T14:05:10;8.90;79.30
17791;DHT22;9019;48.132;-1.210;2023-02-27T14:08:07;9.00;79.40
17791;DHT22;9019;48.132;-1.210;2023-02-27T14:10:36;9.10;80.70
17791;DHT22;9019;48.132;-1.210;2023-02-27T14:13:29;9.20;82.40
17791;DHT22;9019;48.132;-1.210;2023-02-27T14:16:03;9.10;82.10
17791;DHT22;9019;48.132;-1.210;2023-02-27T14:19:00;9.30;88.10
17791;DHT22;9019;48.132;-1.210;2023-02-27T14:21:52;8.90;86.30
17791;DHT22;9019;48.132;-1.210;2023-02-27T14:24:24;9.00;86.10
17791;DHT22;9019;48.132;-1.210;2023-02-27T14:26:52;8.40;83.10
17791;DHT22;9019;48.132;-1.210;2023-02-27T14:29:23;8.60;84.10
17791;DHT22;9019;48.132;-1.210;2023-02-27T14:31:58;8.80;83.10
17791;DHT22;9019;48.132;-1.210;2023-02-27T14:34:26;8.70;85.90
17791;DHT22;9019;48.132;-1.210;2023-02-27T14:36:55;8.70;81.80
17791;DHT22;9019;48.132;-1.210;2023-02-27T14:39:26;8.90;82.90
17791;DHT22;9019;48.132;-1.210;2023-02-27T14:42:05;8.60;86.10
17791;DHT22;9019;48.132;-1.210;2023-02-27T14:44:38;8.60;84.40
17791;DHT22;9019;48.132;-1.210;2023-02-27T14:47:13;9.00;81.40
17791;DHT22;9019;48.132;-1.210;2023-02-27T14:49:41;8.70;81.20
17791;DHT22;9019;48.132;-1.210;2023-02-27T14:52:13;8.80;81.70
17791;DHT22;9019;48.132;-1.210;2023-02-27T14:54:40;8.60;77.20
17791;DHT22;9019;48.132;-1.210;2023-02-27T14:57:13;8.70;79.10
17791;DHT22;9019;48.132;-1.210;2023-02-27T14:59:43;8.30;78.40
17791;DHT22;9019;48.132;-1.210;2023-02-27T15:02:25;8.60;84.40
17791;DHT22;9019;48.132;-1.210;2023-02-27T15:05:10;8.40;81.70
17791;DHT22;9019;48.132;-1.210;2023-02-27T15:07:43;8.50;86.20
17791;DHT22;9019;48.132;-1.210;2023-02-27T15:10:17;8.20;78.80
17791;DHT22;9019;48.132;-1.210;2023-02-27T15:12:45;8.40;82.30
17791;DHT22;9019;48.132;-1.210;2023-02-27T15:15:16;8.30;77.60
17791;DHT22;9019;48.132;-1.210;2023-02-27T15:17:45;8.10;79.60
17791;DHT22;9019;48.132;-1.210;2023-02-27T15:20:23;8.10;76.70
17791;DHT22;9019;48.132;-1.210;2023-02-27T15:22:52;8.20;79.80
17791;DHT22;9019;48.132;-1.210;2023-02-27T15:25:26;8.30;85.30
17791;DHT22;9019;48.132;-1.210;2023-02-27T15:27:55;8.30;89.30
17791;DHT22;9019;48.132;-1.210;2023-02-27T15:30:23;8.30;90.00
17791;DHT22;9019;48.132;-1.210;2023-02-27T15:32:51;8.30;84.60
17791;DHT22;9019;48.132;-1.210;2023-02-27T15:35:21;8.40;90.60
17791;DHT22;9019;48.132;-1.210;2023-02-27T15:37:51;8.30;90.20
17791;DHT22;9019;48.132;-1.210;2023-02-27T15:40:19;7.90;89.10
17791;DHT22;9019;48.132;-1.210;2023-02-27T15:42:47;7.80;90.00
17791;DHT22;9019;48.132;-1.210;2023-02-27T15:45:17;7.80;90.90
17791;DHT22;9019;48.132;-1.210;2023-02-27T15:47:45;7.80;86.90
17791;DHT22;9019;48.132;-1.210;2023-02-27T15:50:25;7.70;84.90
17791;DHT22;9019;48.132;-1.210;2023-02-27T15:52:58;7.70;86.60
17791;DHT22;9019;48.132;-1.210;2023-02-27T15:55:28;7.70;90.70
17791;DHT22;9019;48.132;-1.210;2023-02-27T15:57:56;7.60;89.30
17791;DHT22;9019;48.132;-1.210;2023-02-27T16:00:24;7.40;89.50
17791;DHT22;9019;48.132;-1.210;2023-02-27T16:02:53;7.50;90.00
17791;DHT22;9019;48.132;-1.210;2023-02-27T16:05:26;7.40;89.60
17791;DHT22;9019;48.132;-1.210;2023-02-27T16:07:54;7.40;89.00
17791;DHT22;9019;48.132;-1.210;2023-02-27T16:10:23;7.30;90.10
17791;DHT22;9019;48.132;-1.210;2023-02-27T16:12:52;7.30;90.00
17791;DHT22;9019;48.132;-1.210;2023-02-27T16:15:25;7.30;86.60
17791;DHT22;9019;48.132;-1.210;2023-02-27T16:17:58;7.00;83.60
17791;DHT22;9019;48.132;-1.210;2023-02-27T16:20:38;7.00;82.70
17791;DHT22;9019;48.132;-1.210;2023-02-27T16:23:15;7.00;86.70